Riverside, Washington
Current Conditions -  °F | °C
As of 12:14 PM on Wednesday 26 Nov 2014 (Local Time) from KOMK Reporting Station
Overcast Overcast  
Wind Chill: 30°   Ceiling: 1200
Heat Index: 35°   Visibility: 7mi
Dew Point: 34°   Wind: 6mph
Humidity: 96%   Direction: 170°S
Pressure: 30.14"   Gusts: NA
Location:  48.5°N, 119.51°W
Report Text: KOMK 262014Z AUTO 17005KT 7SM SCT002 OVC012 02/01 A3014 RMK AO2 T00170011
Loading
Personal Weather Stations






























Interactive Weather Map New forecast layout! Learn more

10-Day Weather Forecast

Advertisements
Track Severe Weather on mobile